Seeley Lake, MT

4:20 AM MDT on October 25, 2014 (GMT -0600)
KMTSEELE4 | Change Station
CLOSE
Current Station
Personal Weather Station
Location: Seeley Lake, MT
Elevation: 4028 ft
Nearby Weather Stations

Elev 4028 ft 47.15 °N, 113.48 °W | Updated 1 second ago

Mostly Cloudy
Mostly Cloudy
38.1 °F
Feels Like 38 °F
N
0.0
Wind Variable Wind from ENE
Gusts 0.0 mph

Today
High -- | Low -- °F
--% Chance of Precip.
Yesterday
High -- | Low -- °F
Precip. -- in
8:06 AM 6:28 PM
New Moon, 2% visible
Pressure 30.00 in
Visibility 3.0 miles
Clouds Clear
Windchill 38 °F
Dew Point 35 °F
Humidity 90%
Rainfall 0.00 in
Snow Depth 1 in
UV 0 out of 12
Pollen 1.00 out of 12
Air Quality Not available.
Flu Activity No Activity
SPECI KMSO 251010Z AUTO 00000KT 3SM BR CLR 06/06 A3000 RMK AO2 T00560056

More Conditions Fewer Conditions

Pressure 30.00 in
Visibility 3.0 miles
Clouds Clear
Windchill 38 °F
Dew Point 35 °F
Humidity 90%
Rainfall 0.00 in
Snow Depth 1 in
UV 0 out of 12
Pollen 1.00 out of 12
Air Quality Not available.
Flu Activity No Activity
SPECI KMSO 251010Z AUTO 00000KT 3SM BR CLR 06/06 A3000 RMK AO2 T00560056

More Conditions Fewer Conditions

10-Day Weather Forecast

Almanac

Astronomy

Oct. 25, 2014 Rise Set
Actual Time 8:06 AM MDT 6:28 PM MDT
Civil Twilight 7:35 AM MDT 6:59 PM MDT
Nautical Twilight 6:59 AM MDT 7:35 PM MDT
Astronomical Twilight 6:24 AM MDT 8:10 PM MDT
Moon 9:55 AM MDT 7:48 PM MDT
Length of Visible Light 11h 24m
Length of Day
10h 21m
Tomorrow will be 3m 9s shorter.
New Moon, 2% of the Moon is Illuminated
Today
New Moon
Oct 30
First Quarter
Nov 6
Full
Nov 14
Last Quarter
Nov 22
New

Today's Extremes

State Highs State Lows

Community

WunderPhotos

Upload Photos

1,764,806 photos uploaded!

Nearby

Snow Depth

Station Depth Elevation
North Fork Jocko 0 in 6330 ft
Kraft Creek 1 in 4750 ft
Lubrecht Flume 0 in 4680 ft
Stuart Mountain 2 in 7400 ft
North Fork Elk Creek 0 in 6250 ft

Earthquake Activity

City Distance Mag. Time & Date
No recent earthquake activity has been reported nearby.
Minimum magnitude displayed is 2.5.

Coastal Water Temperatures

Place Temperature
No Stations Reporting

Nearby Weather Stations